createdAt,value
2022-12-05T00:02:13.832Z,22.81
2022-12-05T00:04:45.369Z,22.81
2022-12-05T00:07:16.055Z,22.81
2022-12-05T00:09:46.379Z,22.79
2022-12-05T00:12:16.493Z,22.81
2022-12-05T00:14:46.757Z,22.80
2022-12-05T00:17:16.924Z,22.80
2022-12-05T00:19:49.080Z,22.81
2022-12-05T00:22:19.511Z,22.78
2022-12-05T00:24:49.807Z,22.77
2022-12-05T00:27:21.771Z,22.76
2022-12-05T00:29:51.775Z,22.75
2022-12-05T00:32:24.358Z,22.75
2022-12-05T00:34:56.377Z,22.74
2022-12-05T00:37:31.473Z,22.71
2022-12-05T00:40:01.772Z,22.72
2022-12-05T00:42:32.039Z,22.71
2022-12-05T00:45:02.534Z,22.72
2022-12-05T00:47:32.869Z,22.71
2022-12-05T00:50:03.095Z,22.70
2022-12-05T00:52:33.580Z,22.69
2022-12-05T00:55:03.983Z,22.68
2022-12-05T00:57:36.726Z,22.67
2022-12-05T01:00:07.503Z,22.66
2022-12-05T01:02:37.761Z,22.63
2022-12-05T01:05:08.608Z,22.62
2022-12-05T01:07:39.305Z,22.62
2022-12-05T01:10:13.396Z,22.62
2022-12-05T01:12:44.398Z,22.60
2022-12-05T01:15:15.461Z,22.60
2022-12-05T01:17:46.035Z,22.60
2022-12-05T01:20:16.194Z,22.60
2022-12-05T01:22:46.463Z,22.59
2022-12-05T01:25:16.789Z,22.57
2022-12-05T01:27:48.214Z,22.56
2022-12-05T01:30:18.752Z,22.55
2022-12-05T01:32:49.071Z,22.53
2022-12-05T01:35:19.179Z,22.52
2022-12-05T01:37:52.134Z,22.52
2022-12-05T01:40:22.690Z,22.52
2022-12-05T01:42:52.815Z,22.51
2022-12-05T01:45:42.363Z,22.51
2022-12-05T01:48:21.545Z,22.48
2022-12-05T01:50:52.075Z,22.44
2022-12-05T01:53:22.548Z,22.44
2022-12-05T01:55:54.932Z,22.45
2022-12-05T01:58:42.748Z,22.44
2022-12-05T02:01:04.493Z,22.41
2022-12-05T02:04:01.251Z,22.40
2022-12-05T02:06:32.975Z,22.39
2022-12-05T02:09:05.839Z,22.38
2022-12-05T02:12:08.098Z,22.37
2022-12-05T02:14:41.492Z,22.36
2022-12-05T02:17:26.352Z,22.34
2022-12-05T02:20:02.333Z,22.33
2022-12-05T02:23:03.666Z,22.31
2022-12-05T02:25:54.391Z,22.32
2022-12-05T02:28:44.056Z,22.31
2022-12-05T02:31:23.021Z,22.30
2022-12-05T02:33:55.716Z,22.28
2022-12-05T02:36:37.631Z,22.27
2022-12-05T02:39:29.207Z,22.27
2022-12-05T02:42:06.453Z,22.24
2022-12-05T02:44:45.540Z,22.33
2022-12-05T02:47:16.596Z,22.35
2022-12-05T02:50:13.766Z,22.37
2022-12-05T02:52:51.090Z,22.38
2022-12-05T02:55:21.989Z,22.39
2022-12-05T02:57:54.755Z,22.39
2022-12-05T03:00:25.397Z,22.39
2022-12-05T03:02:58.254Z,22.40
2022-12-05T03:05:50.232Z,22.43
2022-12-05T03:22:50.470Z,22.80
2022-12-05T03:25:20.639Z,22.80
2022-12-05T03:27:55.662Z,22.82
2022-12-05T03:30:26.166Z,22.88
2022-12-05T03:32:59.304Z,22.91
2022-12-05T03:35:41.193Z,22.94
2022-12-05T03:38:16.795Z,22.98
2022-12-05T03:40:55.696Z,23.04
2022-12-05T03:43:40.165Z,23.09
2022-12-05T03:46:22.368Z,23.14
2022-12-05T03:49:01.169Z,23.16
2022-12-05T03:51:45.875Z,23.25
2022-12-05T03:54:27.560Z,23.28
2022-12-05T03:57:12.567Z,23.34
2022-12-05T03:59:50.160Z,23.40
2022-12-05T04:02:28.831Z,23.43
2022-12-05T04:05:10.431Z,23.45
2022-12-05T04:07:43.459Z,23.48
2022-12-05T04:10:19.705Z,23.48
2022-12-05T04:12:50.147Z,23.42
2022-12-05T04:15:29.250Z,23.50
2022-12-05T04:18:02.745Z,23.52
2022-12-05T04:20:57.767Z,23.54
2022-12-05T04:23:28.267Z,23.55
2022-12-05T04:26:07.119Z,23.56
2022-12-05T04:28:51.544Z,23.56
2022-12-05T04:31:30.035Z,23.56
2022-12-05T04:34:06.249Z,23.57
2022-12-05T04:36:47.314Z,23.57
2022-12-05T04:39:38.112Z,23.56
2022-12-05T04:42:10.978Z,23.58
2022-12-05T04:44:44.483Z,23.58
2022-12-05T04:47:16.151Z,23.44
2022-12-05T04:49:53.483Z,23.44
2022-12-05T04:52:21.982Z,23.56
2022-12-05T04:55:04.100Z,23.55
2022-12-05T04:57:48.783Z,23.54
2022-12-05T05:00:19.634Z,23.54
2022-12-05T05:02:58.647Z,23.54
2022-12-05T05:05:28.932Z,23.53
2022-12-05T05:07:59.469Z,23.54
2022-12-05T05:10:44.121Z,23.52
2022-12-05T05:13:15.006Z,23.50
2022-12-05T05:15:45.371Z,23.49
2022-12-05T05:18:15.718Z,23.49
2022-12-05T05:20:45.978Z,23.49
2022-12-05T05:23:16.206Z,23.48
2022-12-05T05:25:46.394Z,23.47
2022-12-05T05:28:16.647Z,23.46
2022-12-05T05:30:46.856Z,23.44
2022-12-05T05:33:17.379Z,23.43
2022-12-05T05:35:47.683Z,23.43
2022-12-05T05:38:17.833Z,23.41
2022-12-05T05:40:48.097Z,23.41
2022-12-05T05:43:18.496Z,23.40
2022-12-05T05:45:48.715Z,23.40
2022-12-05T05:48:18.870Z,23.38
2022-12-05T05:50:49.217Z,23.37
2022-12-05T05:53:19.253Z,23.36
2022-12-05T05:55:49.437Z,23.35
2022-12-05T05:58:19.909Z,23.33
2022-12-05T06:00:51.442Z,23.33
2022-12-05T06:03:21.741Z,23.32
2022-12-05T06:05:59.982Z,23.32
2022-12-05T06:08:31.950Z,23.30
2022-12-05T06:11:02.177Z,23.29
2022-12-05T06:13:32.431Z,23.28
2022-12-05T06:16:02.570Z,23.26
2022-12-05T06:18:32.638Z,23.26
2022-12-05T06:21:02.975Z,23.25
2022-12-05T06:23:33.467Z,23.23
2022-12-05T06:26:03.729Z,23.22
2022-12-05T06:28:36.514Z,23.21
2022-12-05T06:31:11.734Z,23.20
2022-12-05T06:33:42.089Z,23.11
2022-12-05T06:36:14.683Z,23.15
2022-12-05T06:38:45.367Z,23.14
2022-12-05T06:41:18.094Z,23.13
2022-12-05T06:43:49.498Z,23.15
2022-12-05T06:46:20.287Z,23.14
2022-12-05T06:48:50.978Z,23.13
2022-12-05T06:51:21.058Z,23.11
2022-12-05T06:53:51.564Z,23.09
2022-12-05T06:56:22.267Z,23.09
2022-12-05T06:58:54.261Z,23.08
2022-12-05T07:01:43.604Z,23.05
2022-12-05T07:04:17.250Z,23.02
2022-12-05T07:06:50.814Z,23.01
2022-12-05T07:09:19.596Z,22.99
2022-12-05T07:11:50.955Z,22.99
2022-12-05T07:16:53.293Z,22.96
2022-12-05T07:19:23.801Z,22.95
2022-12-05T07:21:54.043Z,22.94
2022-12-05T07:24:24.406Z,22.93
2022-12-05T07:26:54.784Z,22.91
2022-12-05T07:29:25.036Z,22.90
2022-12-05T07:31:56.593Z,22.89
2022-12-05T07:34:27.223Z,22.89
2022-12-05T07:36:57.435Z,22.88
2022-12-05T07:39:27.672Z,22.86
2022-12-05T07:41:58.084Z,22.85
2022-12-05T07:44:28.387Z,22.85
2022-12-05T07:46:58.668Z,22.84
2022-12-05T07:49:28.975Z,22.83
2022-12-05T07:51:59.279Z,22.82
2022-12-05T07:54:29.648Z,22.79
2022-12-05T07:56:59.933Z,22.78
2022-12-05T07:59:30.288Z,22.77
2022-12-05T08:02:00.691Z,22.76
2022-12-05T08:04:32.608Z,22.75
2022-12-05T08:07:02.672Z,22.74
2022-12-05T08:09:35.790Z,22.73
2022-12-05T08:12:05.998Z,22.72
2022-12-05T08:14:36.346Z,22.71
2022-12-05T08:17:06.639Z,22.71
2022-12-05T08:19:37.159Z,22.69
2022-12-05T08:22:07.299Z,22.68
2022-12-05T08:24:40.523Z,22.67
2022-12-05T08:27:11.231Z,22.67
2022-12-05T08:29:41.784Z,22.65
2022-12-05T08:32:12.406Z,22.64
2022-12-05T08:34:43.291Z,22.63
2022-12-05T08:37:14.752Z,22.53
2022-12-05T08:39:46.999Z,22.59
2022-12-05T08:42:18.003Z,22.59
2022-12-05T08:44:48.293Z,22.59
2022-12-05T08:47:18.449Z,22.58
2022-12-05T08:49:48.804Z,22.57
2022-12-05T08:52:19.191Z,22.56
2022-12-05T08:54:49.483Z,22.53
2022-12-05T08:57:19.720Z,22.53
2022-12-05T08:59:50.351Z,22.52
2022-12-05T09:02:20.531Z,22.51
2022-12-05T09:04:54.882Z,22.51
2022-12-05T09:07:24.958Z,22.50
2022-12-05T09:09:55.213Z,22.48
2022-12-05T09:12:25.417Z,22.48
2022-12-05T09:14:56.398Z,22.47
2022-12-05T09:17:26.636Z,22.46
2022-12-05T09:19:56.891Z,22.45
2022-12-05T09:22:27.128Z,22.43
2022-12-05T09:24:57.584Z,22.44
2022-12-05T09:27:28.073Z,22.42
2022-12-05T09:29:58.026Z,22.42
2022-12-05T09:32:28.211Z,22.39
2022-12-05T09:34:58.467Z,22.40
2022-12-05T09:37:39.323Z,22.39
2022-12-05T09:40:00.494Z,22.37
2022-12-05T09:42:51.738Z,22.38
2022-12-05T09:45:24.968Z,22.37
2022-12-05T09:48:09.747Z,22.35
2022-12-05T09:50:48.522Z,22.33
2022-12-05T09:53:31.608Z,22.32
2022-12-05T09:56:08.600Z,22.31
2022-12-05T09:58:47.230Z,22.31
2022-12-05T10:01:42.724Z,22.30
2022-12-05T10:04:31.830Z,22.28
2022-12-05T10:07:04.864Z,22.27
2022-12-05T10:10:14.527Z,22.27
2022-12-05T10:13:01.202Z,22.26
2022-12-05T10:15:36.843Z,22.25
2022-12-05T10:18:09.836Z,22.24
2022-12-05T10:20:54.728Z,22.22
2022-12-05T10:23:55.983Z,22.22
2022-12-05T10:26:00.977Z,22.22
2022-12-05T10:28:42.219Z,22.19
2022-12-05T10:31:14.673Z,22.19
2022-12-05T10:33:51.756Z,22.17
2022-12-05T10:36:22.323Z,22.18
2022-12-05T10:38:52.644Z,22.16
2022-12-05T10:41:23.035Z,22.15
2022-12-05T10:48:52.161Z,22.12
2022-12-05T10:54:25.463Z,22.11
2022-12-05T10:56:55.972Z,22.10
2022-12-05T10:59:28.168Z,22.10
2022-12-05T11:02:00.151Z,22.09
2022-12-05T11:04:47.240Z,22.09
2022-12-05T11:07:34.736Z,22.06
2022-12-05T11:10:07.093Z,22.06
2022-12-05T11:12:39.518Z,22.06
2022-12-05T11:15:22.545Z,22.05
2022-12-05T11:17:53.083Z,22.03
2022-12-05T11:20:26.228Z,22.04
2022-12-05T11:22:57.209Z,22.03
2022-12-05T11:25:35.507Z,22.02
2022-12-05T11:28:20.584Z,22.02
2022-12-05T11:31:15.735Z,22.01
2022-12-05T11:33:45.341Z,22.00
2022-12-05T11:36:22.979Z,22.01
2022-12-05T11:38:54.522Z,22.07
2022-12-05T11:41:33.354Z,22.09
2022-12-05T11:44:09.282Z,22.11
2022-12-05T11:46:53.931Z,22.16
2022-12-05T11:49:40.336Z,22.16
2022-12-05T11:52:25.331Z,22.27
2022-12-05T11:55:20.920Z,22.33
2022-12-05T11:57:59.582Z,22.35
2022-12-05T12:00:41.326Z,22.39
2022-12-05T12:03:37.077Z,22.48
2022-12-05T12:06:19.233Z,22.55
2022-12-05T12:08:57.759Z,22.63
2022-12-05T12:11:48.646Z,22.68
2022-12-05T12:14:24.573Z,22.73
2022-12-05T12:17:17.378Z,22.82
2022-12-05T12:20:20.896Z,22.90
2022-12-05T12:23:13.077Z,22.94
2022-12-05T12:26:14.537Z,23.00
2022-12-05T12:28:59.401Z,23.08
2022-12-05T12:31:41.486Z,23.18
2022-12-05T12:34:21.097Z,23.28
2022-12-05T12:36:53.565Z,23.35
2022-12-05T12:39:50.250Z,23.41
2022-12-05T12:42:31.468Z,23.47
2022-12-05T12:45:10.246Z,23.52
2022-12-05T12:47:59.360Z,23.57
2022-12-05T12:50:31.923Z,23.62
2022-12-05T12:53:24.133Z,23.67
2022-12-05T12:56:02.790Z,23.73
2022-12-05T12:58:38.584Z,23.82
2022-12-05T13:01:20.913Z,23.87
2022-12-05T13:03:54.104Z,23.92
2022-12-05T13:06:33.371Z,23.97
2022-12-05T13:09:12.308Z,24.01
2022-12-05T13:11:43.715Z,24.06
2022-12-05T13:14:18.685Z,24.09
2022-12-05T13:16:51.024Z,24.15
2022-12-05T13:19:33.915Z,24.20
2022-12-05T13:22:03.959Z,24.23
2022-12-05T13:24:34.448Z,24.27
2022-12-05T13:27:11.400Z,24.31
2022-12-05T13:30:09.376Z,24.37
2022-12-05T13:32:38.502Z,24.41
2022-12-05T13:35:12.855Z,24.46
2022-12-05T13:38:07.274Z,24.50
2022-12-05T13:40:56.839Z,24.55
2022-12-05T13:43:29.141Z,24.60
2022-12-05T13:46:02.196Z,24.64
2022-12-05T13:48:33.301Z,24.68
2022-12-05T13:51:11.582Z,24.72
2022-12-05T13:53:44.787Z,24.75
2022-12-05T13:56:18.564Z,24.78
2022-12-05T13:59:00.922Z,24.85
2022-12-05T14:01:56.077Z,24.89
2022-12-05T14:04:28.134Z,24.93
2022-12-05T14:07:01.239Z,24.98
2022-12-05T14:09:32.551Z,25.02
2022-12-05T14:12:17.456Z,25.05
2022-12-05T14:15:02.704Z,25.10
2022-12-05T14:17:33.441Z,25.13
2022-12-05T14:20:28.424Z,25.16
2022-12-05T14:23:26.691Z,25.15
2022-12-05T14:26:08.528Z,25.14
2022-12-05T14:29:08.067Z,25.13
2022-12-05T14:31:52.939Z,25.11
2022-12-05T14:34:30.864Z,25.11
2022-12-05T14:37:03.290Z,25.08
2022-12-05T14:39:51.767Z,25.06
2022-12-05T14:42:33.779Z,25.06
2022-12-05T14:45:05.073Z,25.05
2022-12-05T14:47:35.552Z,25.04
2022-12-05T14:50:24.311Z,25.05
2022-12-05T14:53:24.500Z,25.04
2022-12-05T14:56:17.082Z,25.05
2022-12-05T14:59:05.485Z,25.05
2022-12-05T15:01:43.165Z,25.05
2022-12-05T15:04:27.421Z,25.04
2022-12-05T15:07:06.592Z,25.04
2022-12-05T15:09:54.362Z,25.02
2022-12-05T15:12:30.116Z,25.01
2022-12-05T15:15:08.531Z,25.01
2022-12-05T15:17:50.145Z,24.99
2022-12-05T15:20:23.341Z,24.98
2022-12-05T15:22:53.393Z,24.97
2022-12-05T15:25:25.045Z,24.97
2022-12-05T15:28:03.926Z,24.96
2022-12-05T15:30:34.511Z,24.95
2022-12-05T15:33:04.551Z,24.95
2022-12-05T15:35:35.312Z,24.94
2022-12-05T15:38:27.543Z,24.93
2022-12-05T15:40:56.021Z,24.91
2022-12-05T15:43:32.238Z,24.90
2022-12-05T15:46:13.914Z,24.90
2022-12-05T15:48:44.228Z,24.89
2022-12-05T15:51:14.998Z,24.88
2022-12-05T15:53:48.544Z,24.86
2022-12-05T15:56:29.542Z,24.86
2022-12-05T15:59:04.236Z,24.85
2022-12-05T16:01:35.809Z,24.83
2022-12-05T16:04:11.507Z,24.82
2022-12-05T16:06:45.634Z,24.81
2022-12-05T16:09:24.459Z,24.79
2022-12-05T16:12:05.779Z,24.77
2022-12-05T16:17:11.740Z,24.77
2022-12-05T16:19:42.546Z,24.75
2022-12-05T16:22:27.351Z,24.71
2022-12-05T16:25:02.377Z,24.72
2022-12-05T16:27:37.806Z,24.71
2022-12-05T16:30:22.838Z,24.70
2022-12-05T16:32:55.067Z,24.69
2022-12-05T16:35:43.660Z,24.69
2022-12-05T16:38:28.246Z,24.65
2022-12-05T16:41:03.463Z,24.66
2022-12-05T16:43:36.282Z,24.65
2022-12-05T16:46:21.985Z,24.63
2022-12-05T16:48:52.426Z,24.62
2022-12-05T16:51:26.352Z,24.62
2022-12-05T16:53:56.944Z,24.61
2022-12-05T16:56:32.916Z,24.60
2022-12-05T16:59:07.507Z,24.59
2022-12-05T17:01:39.340Z,24.58
2022-12-05T17:04:11.835Z,24.59
2022-12-05T17:06:43.217Z,24.57
2022-12-05T17:09:14.325Z,24.57
2022-12-05T17:11:46.221Z,24.55
2022-12-05T17:14:17.696Z,24.54
2022-12-05T17:16:47.951Z,24.55
2022-12-05T17:19:18.455Z,24.54
2022-12-05T17:21:48.650Z,24.54
2022-12-05T17:24:19.600Z,24.53
2022-12-05T17:26:49.815Z,24.52
2022-12-05T17:29:19.845Z,24.52
2022-12-05T17:31:50.171Z,24.51
2022-12-05T17:34:20.628Z,24.50
2022-12-05T17:36:50.803Z,24.50
2022-12-05T17:39:27.892Z,24.49
2022-12-05T17:41:54.219Z,24.48
2022-12-05T17:44:24.219Z,24.48
2022-12-05T17:46:54.741Z,24.47
2022-12-05T17:49:25.810Z,24.47
2022-12-05T17:52:21.121Z,24.46
2022-12-05T17:54:27.697Z,24.45
2022-12-05T17:56:57.857Z,24.45
2022-12-05T17:59:27.922Z,24.44
2022-12-05T18:01:58.015Z,24.42
2022-12-05T18:04:28.232Z,24.42
2022-12-05T18:06:58.263Z,24.41
2022-12-05T18:12:10.510Z,24.46
2022-12-05T18:14:40.889Z,24.40
2022-12-05T18:17:11.279Z,24.40
2022-12-05T18:19:41.539Z,24.39
2022-12-05T18:22:13.731Z,24.38
2022-12-05T18:24:44.073Z,24.38
2022-12-05T18:27:14.251Z,24.35
2022-12-05T18:29:44.424Z,24.36
2022-12-05T18:32:15.242Z,24.36
2022-12-05T18:34:46.821Z,24.35
2022-12-05T18:37:18.761Z,24.33
2022-12-05T18:39:49.518Z,24.34
2022-12-05T18:42:19.954Z,24.33
2022-12-05T18:44:50.317Z,24.32
2022-12-05T18:47:21.268Z,24.32
2022-12-05T18:49:51.409Z,24.32
2022-12-05T18:52:22.430Z,24.31
2022-12-05T18:55:09.320Z,24.31
2022-12-05T18:57:26.210Z,24.30
2022-12-05T18:59:56.486Z,24.30
2022-12-05T19:02:27.117Z,24.31
2022-12-05T19:04:57.532Z,24.30
2022-12-05T19:07:27.891Z,24.29
2022-12-05T19:09:58.197Z,24.30
2022-12-05T19:12:28.421Z,24.29
2022-12-05T19:14:58.595Z,24.29
2022-12-05T19:17:29.179Z,24.29
2022-12-05T19:19:59.680Z,24.30
2022-12-05T19:22:31.125Z,24.29
2022-12-05T19:25:02.052Z,24.28
2022-12-05T19:27:33.996Z,24.28
2022-12-05T19:30:09.173Z,24.28
2022-12-05T19:32:39.838Z,24.29
2022-12-05T19:35:07.724Z,24.28
2022-12-05T19:37:37.607Z,24.28
2022-12-05T19:40:09.945Z,24.29
2022-12-05T19:42:40.262Z,24.28
2022-12-05T19:45:16.397Z,24.28
2022-12-05T19:47:43.671Z,24.28
2022-12-05T19:50:15.809Z,24.28
2022-12-05T19:52:46.765Z,24.28
2022-12-05T19:55:17.097Z,24.27
2022-12-05T19:57:47.552Z,24.26
2022-12-05T20:00:19.719Z,24.27
2022-12-05T20:02:50.593Z,24.26
2022-12-05T20:05:20.627Z,24.27
2022-12-05T20:07:50.643Z,24.28
2022-12-05T20:10:21.400Z,24.27
2022-12-05T20:12:51.739Z,24.27
2022-12-05T20:15:22.476Z,24.27
2022-12-05T20:17:53.435Z,24.27
2022-12-05T20:20:23.896Z,24.26
2022-12-05T20:22:53.959Z,24.26
2022-12-05T20:25:23.957Z,24.27
2022-12-05T20:27:54.080Z,24.27
2022-12-05T20:30:24.298Z,24.27
2022-12-05T20:32:54.971Z,24.28
2022-12-05T20:35:25.273Z,24.28
2022-12-05T20:37:55.596Z,24.27
2022-12-05T20:40:25.793Z,24.29
2022-12-05T20:42:55.895Z,24.28
2022-12-05T20:45:26.224Z,24.29
2022-12-05T20:47:59.396Z,24.29
2022-12-05T20:50:32.374Z,24.30
2022-12-05T20:53:02.712Z,24.30
2022-12-05T20:55:32.812Z,24.30
2022-12-05T20:58:05.280Z,24.31
2022-12-05T21:00:34.769Z,24.31
2022-12-05T21:03:04.752Z,24.32
2022-12-05T21:05:36.616Z,24.31
2022-12-05T21:08:07.206Z,24.32
2022-12-05T21:10:37.650Z,24.33
2022-12-05T21:13:07.786Z,24.35
2022-12-05T21:15:38.907Z,24.36
2022-12-05T21:18:12.134Z,24.36
2022-12-05T21:20:42.567Z,24.36
2022-12-05T21:23:13.293Z,24.39
2022-12-05T21:25:44.142Z,24.38
2022-12-05T21:28:15.143Z,24.39
2022-12-05T21:30:45.783Z,24.41
2022-12-05T21:33:17.475Z,24.41
2022-12-05T21:35:58.202Z,24.42
2022-12-05T21:38:28.352Z,24.42
2022-12-05T21:41:00.260Z,24.45
2022-12-05T21:43:31.893Z,24.44
2022-12-05T21:46:02.007Z,24.47
2022-12-05T21:48:32.096Z,24.47
2022-12-05T21:51:02.198Z,24.48
2022-12-05T21:53:32.260Z,24.49
2022-12-05T21:56:24.444Z,24.51
2022-12-05T21:58:53.189Z,24.51
2022-12-05T22:01:29.943Z,24.53
2022-12-05T22:04:00.995Z,24.54
2022-12-05T22:06:32.434Z,24.54
2022-12-05T22:09:02.994Z,24.55
2022-12-05T22:11:33.578Z,24.57
2022-12-05T22:14:03.922Z,24.57
2022-12-05T22:16:34.406Z,24.58
2022-12-05T22:19:04.817Z,24.37
2022-12-05T22:21:35.432Z,24.60
2022-12-05T22:24:05.655Z,24.61
2022-12-05T22:26:38.770Z,24.62
2022-12-05T22:29:08.983Z,24.63
2022-12-05T22:31:42.084Z,24.64
2022-12-05T22:34:12.409Z,24.65
2022-12-05T22:36:42.841Z,24.65
2022-12-05T22:39:14.592Z,24.67
2022-12-05T22:41:45.488Z,24.66
2022-12-05T22:44:16.259Z,24.69
2022-12-05T22:46:47.856Z,24.68
2022-12-05T22:49:23.760Z,24.70
2022-12-05T22:51:51.043Z,24.71
2022-12-05T22:54:24.699Z,24.71
2022-12-05T22:56:53.309Z,24.72
2022-12-05T22:59:23.619Z,24.73
2022-12-05T23:01:54.067Z,24.74
2022-12-05T23:04:25.365Z,24.74
2022-12-05T23:07:02.398Z,24.76
2022-12-05T23:09:32.850Z,24.75
2022-12-05T23:12:03.805Z,24.75
2022-12-05T23:14:35.761Z,24.75
2022-12-05T23:17:06.813Z,24.75
2022-12-05T23:19:37.114Z,24.75
2022-12-05T23:22:07.331Z,24.76
2022-12-05T23:24:39.012Z,24.77
2022-12-05T23:29:50.036Z,24.80
2022-12-05T23:32:26.035Z,24.75
2022-12-05T23:34:56.407Z,24.77
2022-12-05T23:37:29.592Z,24.77
2022-12-05T23:40:01.493Z,24.78
2022-12-05T23:42:31.773Z,24.77
2022-12-05T23:45:06.515Z,24.76
2022-12-05T23:47:38.227Z,24.75
2022-12-05T23:50:11.166Z,24.74
2022-12-05T23:52:42.909Z,24.75
2022-12-05T23:55:35.580Z,24.75
